Time;durP1;ratioP1;P1;durP2;ratioP2;P2;SDS_P1;SDS_P2;PMS_P1;PMS_P2;Temp;Humidity;BMP_temperature;BMP_pressure;BME280_temperature;BME280_humidity;BME280_pressure;Samples;Min_cycle;Max_cycle;Signal;HPM_P1;HPM_P2
2024/01/03 00:00:25;;;;;;;2.83;0.60;;;9.50;72.10;;;;;;4917962;29;20517;-76
2024/01/03 00:02:51;;;;;;;2.55;0.60;;;9.40;72.50;;;;;;4900708;29;20032;-76
2024/01/03 00:05:25;;;;;;;0.70;0.40;;;9.40;73.30;;;;;;4918547;29;20028;-76
2024/01/03 00:07:51;;;;;;;4.13;1.30;;;9.40;74.70;;;;;;4900780;29;20135;-77
2024/01/03 00:10:40;;;;;;;2.85;0.60;;;9.20;76.60;;;;;;4900901;29;20119;-76
2024/01/03 00:13:38;;;;;;;3.08;0.90;;;9.20;78.10;;;;;;4917563;29;20568;-77
2024/01/03 00:16:04;;;;;;;1.95;0.80;;;9.00;78.40;;;;;;4917825;29;20108;-75
2024/01/03 00:18:49;;;;;;;2.58;0.73;;;8.90;80.30;;;;;;4916599;29;20028;-75
2024/01/03 00:21:26;;;;;;;3.95;0.90;;;8.80;80.30;;;;;;4900833;29;20039;-76
2024/01/03 00:23:52;;;;;;;3.83;0.73;;;8.80;80.50;;;;;;4900697;29;20176;-74
2024/01/03 00:26:18;;;;;;;4.00;0.80;;;8.80;80.10;;;;;;4917507;29;20028;-74
2024/01/03 00:28:45;;;;;;;1.73;0.80;;;8.70;81.90;;;;;;4900596;29;20489;-75
2024/01/03 00:31:38;;;;;;;1.55;0.65;;;8.80;80.90;;;;;;4900473;29;20043;-74
2024/01/03 00:34:34;;;;;;;1.52;0.70;;;8.80;80.80;;;;;;4900525;29;20164;-74
2024/01/03 00:37:00;;;;;;;0.90;0.32;;;8.80;81.10;;;;;;4897995;29;20397;-74
2024/01/03 00:39:27;;;;;;;0.45;0.22;;;8.80;80.20;;;;;;4900477;29;20145;-74
2024/01/03 00:41:53;;;;;;;1.60;0.65;;;8.80;81.00;;;;;;4900095;29;20036;-74
2024/01/03 00:44:18;;;;;;;2.63;0.40;;;8.80;81.60;;;;;;4900348;29;20027;-74
2024/01/03 00:46:46;;;;;;;0.55;0.32;;;8.70;81.60;;;;;;4900313;29;20024;-76
2024/01/03 00:49:12;;;;;;;0.50;0.30;;;8.80;82.20;;;;;;4900179;29;20127;-74
2024/01/03 00:51:38;;;;;;;0.93;0.40;;;8.80;83.00;;;;;;4916903;29;20047;-73
2024/01/03 00:54:04;;;;;;;2.35;0.60;;;8.70;83.40;;;;;;4900192;29;20035;-74
2024/01/03 00:56:30;;;;;;;1.02;0.63;;;8.60;83.80;;;;;;4900263;29;20028;-74
2024/01/03 00:58:55;;;;;;;1.73;0.63;;;8.60;84.60;;;;;;4899336;29;20024;-74
2024/01/03 01:01:21;;;;;;;2.65;0.57;;;8.60;84.20;;;;;;4899880;29;20494;-75
2024/01/03 01:03:47;;;;;;;0.65;0.30;;;8.60;84.20;;;;;;4899986;29;20028;-74
2024/01/03 01:06:13;;;;;;;1.42;0.50;;;8.70;83.80;;;;;;4900032;29;20028;-76
2024/01/03 01:08:38;;;;;;;0.50;0.35;;;8.70;83.00;;;;;;4896594;29;20036;-73
2024/01/03 01:11:04;;;;;;;2.60;0.43;;;8.70;82.50;;;;;;4896788;29;20051;-74
2024/01/03 01:13:30;;;;;;;3.60;0.40;;;8.80;83.10;;;;;;4896784;29;20025;-73
2024/01/03 01:15:56;;;;;;;1.88;0.40;;;8.80;81.60;;;;;;4896816;29;20028;-73
2024/01/03 01:18:22;;;;;;;1.88;0.40;;;8.80;80.30;;;;;;4896998;29;20378;-75
2024/01/03 01:20:47;;;;;;;0.77;0.30;;;8.90;80.60;;;;;;4896888;29;20083;-75
2024/01/03 01:23:13;;;;;;;1.63;0.50;;;8.90;80.70;;;;;;4896333;29;20513;-75
2024/01/03 01:25:38;;;;;;;1.50;0.40;;;8.90;79.90;;;;;;4896678;29;20539;-74
2024/01/03 01:28:04;;;;;;;0.82;0.40;;;8.90;79.50;;;;;;4896279;29;20033;-74
2024/01/03 01:30:29;;;;;;;1.23;0.50;;;9.00;78.70;;;;;;4896584;29;20483;-75
2024/01/03 01:32:55;;;;;;;0.63;0.38;;;9.10;77.60;;;;;;4896725;29;20020;-75
2024/01/03 01:35:21;;;;;;;2.28;0.43;;;9.10;77.40;;;;;;4896653;29;20093;-76
2024/01/03 01:37:46;;;;;;;1.25;0.40;;;9.10;77.70;;;;;;4896598;29;20482;-75
2024/01/03 01:40:12;;;;;;;1.60;0.40;;;9.10;77.60;;;;;;4896741;29;20033;-76
2024/01/03 01:42:42;;;;;;;0.75;0.30;;;9.10;77.40;;;;;;4896561;29;20080;-75
2024/01/03 01:45:08;;;;;;;1.05;0.38;;;9.10;77.30;;;;;;4896110;29;20439;-75
2024/01/03 01:47:33;;;;;;;1.95;0.45;;;9.10;77.60;;;;;;4896630;29;20054;-75
2024/01/03 01:49:59;;;;;;;1.88;0.28;;;9.10;78.10;;;;;;4896419;29;20043;-75
2024/01/03 01:52:25;;;;;;;1.45;0.20;;;9.00;77.20;;;;;;4896488;29;20032;-75
2024/01/03 01:54:51;;;;;;;0.95;0.22;;;9.00;78.20;;;;;;4896446;29;20028;-75
2024/01/03 01:57:18;;;;;;;0.60;0.30;;;9.00;77.80;;;;;;4896447;29;20036;-75
2024/01/03 01:59:45;;;;;;;0.20;0.20;;;9.00;77.20;;;;;;4896423;29;20020;-75
2024/01/03 02:02:11;;;;;;;0.77;0.30;;;9.00;77.40;;;;;;4896516;29;20067;-75
2024/01/03 02:04:38;;;;;;;0.32;0.20;;;9.00;77.30;;;;;;4896389;29;20032;-75
2024/01/03 02:07:05;;;;;;;1.50;0.47;;;9.00;77.40;;;;;;4896477;29;20035;-75
2024/01/03 02:09:31;;;;;;;1.70;0.30;;;9.00;77.10;;;;;;4895916;29;20057;-75
2024/01/03 02:11:56;;;;;;;0.52;0.20;;;9.10;76.90;;;;;;4899574;29;20036;-75
2024/01/03 02:14:22;;;;;;;0.40;0.20;;;9.10;76.10;;;;;;4899847;29;20126;-75
2024/01/03 02:16:47;;;;;;;1.25;0.40;;;9.10;76.10;;;;;;4900826;29;20028;-75
2024/01/03 02:19:13;;;;;;;1.70;0.43;;;9.10;76.00;;;;;;4899791;29;20025;-76
2024/01/03 02:21:38;;;;;;;1.23;0.30;;;9.10;74.50;;;;;;4899549;29;20043;-75
2024/01/03 02:24:04;;;;;;;0.50;0.25;;;9.20;75.10;;;;;;4900964;29;20039;-75
2024/01/03 02:26:30;;;;;;;1.63;0.50;;;9.20;74.60;;;;;;4899476;29;20489;-76
2024/01/03 02:28:55;;;;;;;5.00;0.65;;;9.10;75.10;;;;;;4900646;29;20028;-76
2024/01/03 02:31:21;;;;;;;0.82;0.30;;;9.10;74.50;;;;;;4899533;29;20379;-75
2024/01/03 02:33:46;;;;;;;0.30;0.22;;;9.10;74.60;;;;;;4899716;29;20123;-75
2024/01/03 02:36:12;;;;;;;2.08;0.50;;;9.20;74.60;;;;;;4899492;29;20032;-75
2024/01/03 02:38:39;;;;;;;1.02;0.45;;;9.20;74.30;;;;;;4899477;29;20496;-75
2024/01/03 02:41:04;;;;;;;1.55;0.40;;;9.20;74.20;;;;;;4899459;29;20116;-76
2024/01/03 02:43:30;;;;;;;0.57;0.30;;;9.10;75.10;;;;;;4899364;29;20055;-75
2024/01/03 02:45:55;;;;;;;0.95;0.38;;;9.10;75.10;;;;;;4899374;29;20024;-75
2024/01/03 02:48:21;;;;;;;2.83;0.50;;;9.10;74.00;;;;;;4898957;29;20033;-75
2024/01/03 02:50:48;;;;;;;0.95;0.40;;;9.00;73.70;;;;;;4899162;29;20394;-75
2024/01/03 02:53:15;;;;;;;2.95;0.45;;;9.10;73.30;;;;;;4899177;29;20036;-75
2024/01/03 02:55:40;;;;;;;3.22;0.45;;;9.00;72.70;;;;;;4899100;29;20060;-75
2024/01/03 02:58:06;;;;;;;1.42;0.52;;;9.10;72.50;;;;;;4899197;29;20119;-75
2024/01/03 03:00:32;;;;;;;0.93;0.40;;;9.10;72.40;;;;;;4899138;29;20032;-75
2024/01/03 03:02:57;;;;;;;2.15;0.30;;;9.10;72.50;;;;;;4898472;29;20025;-75
2024/01/03 03:05:23;;;;;;;1.65;0.43;;;9.10;72.10;;;;;;4898996;29;20032;-76
2024/01/03 03:07:48;;;;;;;0.68;0.40;;;9.00;72.00;;;;;;4901402;29;20047;-76
2024/01/03 03:10:15;;;;;;;1.73;0.55;;;9.00;72.40;;;;;;4901931;29;20111;-75
2024/01/03 03:12:40;;;;;;;3.88;0.65;;;9.00;71.70;;;;;;4902002;29;20028;-76
2024/01/03 03:15:06;;;;;;;2.67;0.40;;;8.90;72.00;;;;;;4902050;29;20035;-75
2024/01/03 03:17:32;;;;;;;2.22;0.60;;;9.00;71.30;;;;;;4901614;29;20020;-75
2024/01/03 03:19:58;;;;;;;2.75;0.30;;;9.00;71.10;;;;;;4901803;29;20055;-78
2024/01/03 03:22:23;;;;;;;1.35;0.35;;;9.00;71.10;;;;;;4900864;29;20058;-76
2024/01/03 03:24:49;;;;;;;0.82;0.30;;;9.10;71.00;;;;;;4901799;29;20470;-76
2024/01/03 03:27:15;;;;;;;0.38;0.30;;;9.10;70.70;;;;;;4901722;29;20154;-77
2024/01/03 03:29:40;;;;;;;1.17;0.45;;;9.00;71.20;;;;;;4901155;29;20040;-76
2024/01/03 03:32:07;;;;;;;1.92;0.43;;;8.90;71.20;;;;;;4901611;29;20024;-76
2024/01/03 03:34:32;;;;;;;1.60;0.40;;;9.00;71.00;;;;;;4901541;29;20371;-77
2024/01/03 03:37:02;;;;;;;1.77;0.35;;;8.90;72.20;;;;;;4901372;29;20025;-77
2024/01/03 03:39:28;;;;;;;1.48;0.50;;;8.90;71.10;;;;;;4901508;29;20028;-75
2024/01/03 03:41:53;;;;;;;1.05;0.60;;;8.90;71.10;;;;;;4900935;29;20430;-80
2024/01/03 03:44:19;;;;;;;1.08;0.40;;;9.00;71.10;;;;;;4918400;29;20024;-77
2024/01/03 03:46:45;;;;;;;2.90;0.43;;;8.90;71.10;;;;;;4904608;29;20111;-78
2024/01/03 03:49:10;;;;;;;1.83;0.52;;;8.90;71.30;;;;;;4901243;29;20388;-77
2024/01/03 03:51:36;;;;;;;1.48;0.40;;;9.00;70.80;;;;;;4901220;29;20067;-77
2024/01/03 03:54:01;;;;;;;3.92;0.80;;;9.00;70.80;;;;;;4901206;29;20119;-79
2024/01/03 03:56:31;;;;;;;1.33;0.60;;;9.00;70.90;;;;;;4901117;29;20379;-80
2024/01/03 03:58:57;;;;;;;2.03;0.77;;;9.00;70.70;;;;;;4901229;29;20039;-76
2024/01/03 04:01:22;;;;;;;1.27;0.60;;;9.10;71.20;;;;;;4901143;29;20020;-80
2024/01/03 04:03:49;;;;;;;1.05;0.70;;;9.00;71.40;;;;;;4918049;29;20043;-76
2024/01/03 04:06:15;;;;;;;1.85;0.55;;;9.00;71.80;;;;;;4900731;29;20020;-75
2024/01/03 04:08:45;;;;;;;4.38;0.45;;;9.00;71.80;;;;;;4900765;29;20063;-74
2024/01/03 04:11:14;;;;;;;2.47;0.60;;;9.10;72.00;;;;;;4900654;29;20501;-76
2024/01/03 04:13:40;;;;;;;2.58;0.55;;;9.00;72.30;;;;;;4900568;29;20060;-76
2024/01/03 04:16:10;;;;;;;1.98;0.45;;;9.00;73.00;;;;;;4900433;29;20548;-76
2024/01/03 04:18:36;;;;;;;2.53;0.60;;;9.00;72.90;;;;;;4900142;29;20465;-75
2024/01/03 04:21:06;;;;;;;2.40;0.55;;;9.00;73.20;;;;;;4900315;29;20032;-74
2024/01/03 04:23:33;;;;;;;1.90;0.45;;;9.00;73.00;;;;;;4900421;29;20024;-76
2024/01/03 04:25:58;;;;;;;2.20;0.60;;;9.00;73.30;;;;;;4900535;29;20105;-75
2024/01/03 04:28:24;;;;;;;1.50;0.30;;;9.10;73.40;;;;;;4900073;29;20032;-74
2024/01/03 04:30:49;;;;;;;1.75;0.40;;;9.00;73.70;;;;;;4900400;29;20032;-75
2024/01/03 04:33:15;;;;;;;1.92;0.50;;;9.10;73.30;;;;;;4915959;29;20032;-76
2024/01/03 04:35:40;;;;;;;1.10;0.45;;;9.10;73.50;;;;;;4916168;29;20449;-76
2024/01/03 04:38:06;;;;;;;2.53;0.60;;;9.10;73.70;;;;;;4900352;29;20477;-77
2024/01/03 04:40:32;;;;;;;1.85;0.65;;;9.10;74.10;;;;;;4900223;29;20092;-80
2024/01/03 04:42:58;;;;;;;2.38;0.60;;;9.10;74.00;;;;;;4900258;29;20094;-80
2024/01/03 04:45:24;;;;;;;1.02;0.60;;;9.10;74.40;;;;;;4900233;29;20028;-78
2024/01/03 04:47:49;;;;;;;1.23;0.30;;;9.10;76.30;;;;;;4900399;29;20024;-78
2024/01/03 04:50:15;;;;;;;1.85;0.65;;;9.00;76.30;;;;;;4899889;29;20040;-77
2024/01/03 04:52:41;;;;;;;0.90;0.40;;;9.00;77.30;;;;;;4899926;29;20024;-76
2024/01/03 04:55:07;;;;;;;1.35;0.30;;;9.00;79.50;;;;;;4899948;29;20478;-80
2024/01/03 04:57:34;;;;;;;3.00;0.63;;;8.70;80.80;;;;;;4899855;29;20020;-77
2024/01/03 04:59:59;;;;;;;1.10;0.43;;;8.60;81.60;;;;;;4900234;29;20414;-79
2024/01/03 05:02:25;;;;;;;0.88;0.20;;;8.60;81.90;;;;;;4904357;29;20031;-80
2024/01/03 05:04:51;;;;;;;0.63;0.30;;;8.50;81.60;;;;;;4900381;29;20487;-80
2024/01/03 05:07:17;;;;;;;0.32;0.20;;;8.50;82.20;;;;;;4899958;29;20024;-78
2024/01/03 05:09:44;;;;;;;0.25;0.10;;;8.50;82.40;;;;;;4899449;29;20134;-80
2024/01/03 05:12:10;;;;;;;0.40;0.17;;;8.50;82.90;;;;;;4899516;29;20494;-77
2024/01/03 05:14:36;;;;;;;0.28;0.15;;;8.40;83.70;;;;;;4899813;29;20075;-80
2024/01/03 05:17:02;;;;;;;3.83;0.80;;;8.40;83.80;;;;;;4899809;29;20385;-78
2024/01/03 05:19:27;;;;;;;2.38;0.82;;;8.50;84.70;;;;;;4899839;29;20127;-80
2024/01/03 05:21:53;;;;;;;1.38;0.40;;;8.40;85.70;;;;;;4899689;29;20035;-81
2024/01/03 05:24:19;;;;;;;1.02;0.50;;;8.10;85.50;;;;;;4899484;29;20458;-80
2024/01/03 05:26:45;;;;;;;1.40;0.57;;;8.00;87.10;;;;;;4899876;29;20035;-80
2024/01/03 05:29:11;;;;;;;1.13;0.40;;;8.00;87.90;;;;;;4899660;29;20122;-74
2024/01/03 05:31:36;;;;;;;1.23;0.50;;;7.90;87.60;;;;;;4899848;29;20430;-81
2024/01/03 05:34:02;;;;;;;0.70;0.20;;;7.90;87.50;;;;;;4899654;29;20020;-80
2024/01/03 05:36:27;;;;;;;0.85;0.40;;;7.90;86.80;;;;;;4899856;29;20028;-80
2024/01/03 05:38:54;;;;;;;0.98;0.40;;;8.00;86.60;;;;;;4899763;29;20481;-80
2024/01/03 05:41:20;;;;;;;1.55;0.40;;;8.00;86.40;;;;;;4899819;29;20051;-81
2024/01/03 05:43:46;;;;;;;0.70;0.20;;;8.00;86.50;;;;;;4916564;29;20069;-80
2024/01/03 05:46:12;;;;;;;1.30;0.20;;;8.00;86.10;;;;;;4902147;29;20035;-73
2024/01/03 05:48:38;;;;;;;3.75;0.40;;;8.00;85.80;;;;;;4903443;29;20039;-74
2024/01/03 05:51:04;;;;;;;2.15;0.52;;;8.00;85.70;;;;;;4903316;29;20107;-75
2024/01/03 05:53:30;;;;;;;2.28;0.70;;;8.10;85.60;;;;;;4903269;29;20061;-76
2024/01/03 05:55:56;;;;;;;1.75;0.50;;;8.10;85.60;;;;;;4903370;29;20484;-75
2024/01/03 05:58:22;;;;;;;1.67;0.50;;;8.20;84.70;;;;;;4903260;29;20039;-76
2024/01/03 06:00:47;;;;;;;2.03;0.80;;;8.10;85.00;;;;;;4903193;29;20393;-75
2024/01/03 06:03:13;;;;;;;2.40;0.98;;;8.10;85.00;;;;;;4903142;29;20391;-75
2024/01/03 06:05:39;;;;;;;1.90;0.88;;;8.00;84.90;;;;;;4902806;29;20028;-75
2024/01/03 06:08:05;;;;;;;5.05;0.95;;;8.00;84.30;;;;;;4902924;29;20438;-75
2024/01/03 06:10:31;;;;;;;2.28;0.70;;;8.10;82.00;;;;;;4902686;29;20047;-75
2024/01/03 06:12:57;;;;;;;3.88;0.70;;;8.10;81.20;;;;;;4902928;29;20043;-75
2024/01/03 06:15:22;;;;;;;4.88;0.95;;;8.30;80.70;;;;;;4903168;29;20032;-75
2024/01/03 06:17:48;;;;;;;5.20;1.05;;;8.30;80.90;;;;;;4902612;29;20028;-74
2024/01/03 06:20:16;;;;;;;1.67;0.77;;;8.40;80.30;;;;;;4902840;29;20031;-74
2024/01/03 06:22:41;;;;;;;3.50;0.95;;;8.40;79.10;;;;;;4902591;29;20339;-75
2024/01/03 06:25:07;;;;;;;4.15;1.17;;;8.40;79.80;;;;;;4902897;29;20032;-76
2024/01/03 06:27:33;;;;;;;4.32;0.90;;;8.40;79.90;;;;;;4919306;29;20037;-75
2024/01/03 06:29:58;;;;;;;3.97;1.00;;;8.40;80.80;;;;;;4902539;29;20474;-74
2024/01/03 06:32:24;;;;;;;2.15;0.75;;;8.30;80.40;;;;;;4902565;29;20059;-74
2024/01/03 06:34:49;;;;;;;3.80;1.30;;;8.40;80.50;;;;;;4902534;29;20028;-75
2024/01/03 06:37:15;;;;;;;4.90;1.20;;;8.30;82.00;;;;;;4902518;29;20036;-74
2024/01/03 06:39:40;;;;;;;6.68;1.30;;;8.20;82.90;;;;;;4902521;29;20024;-74
2024/01/03 06:42:07;;;;;;;3.47;0.90;;;8.10;83.30;;;;;;4902476;29;20039;-75
2024/01/03 06:44:33;;;;;;;4.15;1.52;;;8.10;82.90;;;;;;4902387;29;20079;-75
2024/01/03 06:46:58;;;;;;;1.35;0.65;;;8.10;83.40;;;;;;4902095;29;20028;-74
2024/01/03 06:49:24;;;;;;;1.70;0.95;;;8.10;82.10;;;;;;4902280;29;20032;-74
2024/01/03 06:51:49;;;;;;;1.20;0.57;;;8.10;83.00;;;;;;4902200;29;20035;-74
2024/01/03 06:54:17;;;;;;;3.45;0.70;;;8.10;81.80;;;;;;4901856;29;20369;-75
2024/01/03 06:56:43;;;;;;;5.30;1.02;;;8.00;82.40;;;;;;4902173;29;20115;-74
2024/01/03 06:59:08;;;;;;;1.83;0.80;;;8.00;81.90;;;;;;4919199;29;20292;-74
2024/01/03 07:01:34;;;;;;;3.72;0.40;;;8.10;82.20;;;;;;4902017;29;20039;-74
2024/01/03 07:04:01;;;;;;;3.40;0.70;;;8.00;81.70;;;;;;4901996;29;20486;-74
2024/01/03 07:06:27;;;;;;;3.42;1.10;;;8.00;81.00;;;;;;4901828;29;20119;-73
2024/01/03 07:08:53;;;;;;;2.88;1.20;;;8.10;81.20;;;;;;4901692;29;20207;-75
2024/01/03 07:11:20;;;;;;;2.10;0.80;;;8.10;81.10;;;;;;4901886;29;20130;-74
2024/01/03 07:13:46;;;;;;;3.92;0.80;;;8.10;80.40;;;;;;4901560;29;20171;-75
2024/01/03 07:16:12;;;;;;;2.33;0.60;;;8.20;79.80;;;;;;4901731;29;20118;-74
2024/01/03 07:18:37;;;;;;;2.20;0.70;;;8.30;80.10;;;;;;4901646;29;20458;-74
2024/01/03 07:21:04;;;;;;;5.68;1.38;;;8.30;80.00;;;;;;4901585;29;20441;-76
2024/01/03 07:23:29;;;;;;;3.35;0.90;;;8.20;79.80;;;;;;4901682;29;20031;-76
2024/01/03 07:25:55;;;;;;;5.18;0.63;;;8.20;80.00;;;;;;4918218;29;20027;-76
2024/01/03 07:28:21;;;;;;;3.30;0.75;;;8.30;79.40;;;;;;4901331;29;20025;-77
2024/01/03 07:30:46;;;;;;;2.50;0.60;;;8.30;78.90;;;;;;4901754;29;20068;-76
2024/01/03 07:33:12;;;;;;;7.43;1.02;;;8.30;78.70;;;;;;4901121;29;20024;-76
2024/01/03 07:35:38;;;;;;;2.70;0.98;;;8.30;78.20;;;;;;4901456;29;20059;-76
2024/01/03 07:38:05;;;;;;;7.05;0.95;;;8.30;77.70;;;;;;4900994;29;20024;-76
2024/01/03 07:40:31;;;;;;;7.28;1.15;;;8.40;77.10;;;;;;4901347;29;20032;-76
2024/01/03 07:42:56;;;;;;;5.75;1.10;;;8.50;76.30;;;;;;4918017;29;20034;-76
2024/01/03 07:45:22;;;;;;;4.55;1.02;;;8.50;76.20;;;;;;4918312;29;20366;-75
2024/01/03 07:47:47;;;;;;;7.80;1.33;;;8.50;76.50;;;;;;4901330;29;20430;-75
2024/01/03 07:50:13;;;;;;;4.22;1.23;;;8.60;75.90;;;;;;4901144;29;20313;-76
2024/01/03 07:52:39;;;;;;;5.85;0.98;;;8.50;76.10;;;;;;4901268;29;20036;-76
2024/01/03 07:55:04;;;;;;;8.52;1.35;;;8.50;76.10;;;;;;4901355;29;20055;-74
2024/01/03 07:57:30;;;;;;;6.15;1.30;;;8.50;76.80;;;;;;4903376;29;20028;-74
2024/01/03 07:59:55;;;;;;;4.57;1.05;;;8.50;76.90;;;;;;4901592;29;20032;-75
2024/01/03 08:02:21;;;;;;;3.92;1.13;;;8.50;76.60;;;;;;4901381;29;20035;-75
2024/01/03 08:04:47;;;;;;;7.20;1.52;;;8.50;76.90;;;;;;4902368;29;20028;-76
2024/01/03 08:07:12;;;;;;;4.88;1.02;;;8.50;76.60;;;;;;4907964;29;20028;-74
2024/01/03 08:09:38;;;;;;;5.88;1.70;;;8.60;76.70;;;;;;4918606;29;20086;-75
2024/01/03 08:12:09;;;;;;;6.80;1.45;;;8.60;75.90;;;;;;4900916;29;20144;-75
2024/01/03 08:14:35;;;;;;;3.17;0.90;;;8.70;75.60;;;;;;4900239;29;20048;-75
2024/01/03 08:17:02;;;;;;;7.72;1.50;;;8.80;75.40;;;;;;4900995;29;20028;-75
2024/01/03 08:19:28;;;;;;;3.65;0.90;;;8.80;74.90;;;;;;4917601;29;20063;-76
2024/01/03 08:21:54;;;;;;;7.78;1.38;;;8.80;74.30;;;;;;4900688;29;20052;-75
2024/01/03 08:24:20;;;;;;;8.20;1.55;;;8.80;74.30;;;;;;4900230;29;20477;-75
2024/01/03 08:26:47;;;;;;;3.55;0.90;;;8.80;74.20;;;;;;4917743;29;20060;-75
2024/01/03 08:29:15;;;;;;;7.53;1.48;;;8.80;74.20;;;;;;4900401;29;20460;-75
2024/01/03 08:31:40;;;;;;;11.50;1.60;;;8.80;74.90;;;;;;4900579;29;20106;-76
2024/01/03 08:34:06;;;;;;;7.22;1.25;;;8.80;73.80;;;;;;4900395;29;20021;-75
2024/01/03 08:36:40;;;;;;;4.05;1.02;;;8.80;75.00;;;;;;4900392;29;20028;-75
2024/01/03 08:39:06;;;;;;;2.45;0.90;;;8.80;74.50;;;;;;4900362;29;20369;-76
2024/01/03 08:41:32;;;;;;;3.08;1.00;;;8.80;75.10;;;;;;4899823;29;20497;-75
2024/01/03 08:43:57;;;;;;;5.90;1.30;;;8.80;75.60;;;;;;4900329;29;20062;-75
2024/01/03 08:46:28;;;;;;;4.28;0.80;;;8.80;73.90;;;;;;4900216;29;20032;-76
2024/01/03 08:48:54;;;;;;;6.45;1.00;;;8.80;74.70;;;;;;4900207;29;20024;-75
2024/01/03 08:51:20;;;;;;;4.03;0.70;;;8.80;74.20;;;;;;4917048;29;20039;-75
2024/01/03 08:53:46;;;;;;;3.17;0.70;;;8.90;73.30;;;;;;4899938;29;20032;-75
2024/01/03 08:56:13;;;;;;;2.45;0.85;;;8.90;74.50;;;;;;4899845;29;20036;-76
2024/01/03 08:58:40;;;;;;;7.15;1.25;;;8.90;74.30;;;;;;4916407;29;20393;-76
2024/01/03 09:01:05;;;;;;;6.90;0.90;;;8.80;75.00;;;;;;4899633;29;20095;-76
2024/01/03 09:03:31;;;;;;;4.45;0.85;;;8.80;74.20;;;;;;4916961;29;20426;-75
2024/01/03 09:05:57;;;;;;;2.67;0.82;;;8.80;74.50;;;;;;4899818;29;20028;-75
2024/01/03 09:08:22;;;;;;;8.25;1.27;;;8.80;75.10;;;;;;4899914;29;20510;-76
2024/01/03 09:10:48;;;;;;;4.55;0.70;;;8.80;74.10;;;;;;4900065;29;20058;-75
2024/01/03 09:13:14;;;;;;;6.82;1.05;;;8.90;73.30;;;;;;4899989;29;20024;-75
2024/01/03 09:15:41;;;;;;;7.50;1.17;;;9.00;72.50;;;;;;4899709;29;20031;-76
2024/01/03 09:18:07;;;;;;;5.53;1.15;;;9.00;72.70;;;;;;4900780;29;20542;-75
2024/01/03 09:20:33;;;;;;;7.53;1.13;;;9.00;71.90;;;;;;4898975;29;20036;-77
2024/01/03 09:23:00;;;;;;;4.32;1.38;;;9.00;72.10;;;;;;4916541;29;20355;-75
2024/01/03 09:25:25;;;;;;;4.93;1.30;;;9.00;73.10;;;;;;4899516;29;20067;-76
2024/01/03 09:27:52;;;;;;;6.03;1.00;;;9.00;72.00;;;;;;4916273;29;20032;-74
2024/01/03 09:30:21;;;;;;;4.45;1.10;;;9.00;72.30;;;;;;4899538;29;20039;-75
2024/01/03 09:32:50;;;;;;;5.78;1.10;;;9.00;72.30;;;;;;4899514;29;20379;-76
2024/01/03 09:35:15;;;;;;;4.55;1.00;;;9.10;71.40;;;;;;4899499;29;20028;-76
2024/01/03 09:37:41;;;;;;;6.10;1.25;;;9.20;71.00;;;;;;4899715;29;20035;-75
2024/01/03 09:40:09;;;;;;;4.68;1.13;;;9.20;70.40;;;;;;4899185;29;20116;-76
2024/01/03 09:42:37;;;;;;;4.90;1.30;;;9.20;71.40;;;;;;4899021;29;20474;-75
2024/01/03 09:45:05;;;;;;;7.75;1.33;;;9.20;70.60;;;;;;4916393;29;20477;-77
2024/01/03 09:47:32;;;;;;;4.13;1.30;;;9.10;71.70;;;;;;4899050;29;20028;-76
2024/01/03 09:49:59;;;;;;;5.43;1.25;;;9.00;73.50;;;;;;4899417;29;20071;-76
2024/01/03 09:52:26;;;;;;;8.10;1.40;;;8.90;74.50;;;;;;4899417;29;20087;-76
2024/01/03 09:54:51;;;;;;;3.17;1.02;;;8.80;73.90;;;;;;4899419;29;20047;-78
2024/01/03 09:57:18;;;;;;;4.97;1.05;;;8.80;74.80;;;;;;4916227;29;20025;-76
2024/01/03 09:59:44;;;;;;;5.72;0.98;;;8.70;75.30;;;;;;4899163;29;20036;-77
2024/01/03 10:02:11;;;;;;;5.53;1.00;;;8.60;75.20;;;;;;4899348;29;20377;-77
2024/01/03 10:04:44;;;;;;;6.47;1.00;;;8.50;75.30;;;;;;4899375;29;20115;-76
2024/01/03 10:07:09;;;;;;;3.80;0.90;;;8.50;76.50;;;;;;4899537;29;20492;-78
2024/01/03 10:09:44;;;;;;;5.55;0.63;;;8.40;76.10;;;;;;4898890;29;20052;-77
2024/01/03 10:12:19;;;;;;;3.35;0.55;;;8.50;76.10;;;;;;4899352;29;20056;-76
2024/01/03 10:14:45;;;;;;;;;;;8.50;76.10;;;;;;4898959;29;20119;-76
2024/01/03 10:17:11;;;;;;;;;;;8.50;76.20;;;;;;4899781;29;20661;-76
2024/01/03 10:19:37;;;;;;;2.55;1.00;;;8.50;77.10;;;;;;4899354;29;19931;-78
2024/01/03 10:22:03;;;;;;;1.95;0.68;;;8.40;76.40;;;;;;4899378;29;20442;-77
2024/01/03 10:24:31;;;;;;;3.70;1.00;;;8.40;75.80;;;;;;4899173;29;20087;-76
2024/01/03 10:27:08;;;;;;;5.85;1.48;;;8.50;75.00;;;;;;4899402;29;20124;-80
2024/01/03 10:29:34;;;;;;;2.17;0.70;;;8.50;74.90;;;;;;4898894;29;20028;-80
2024/01/03 10:32:00;;;;;;;4.82;0.90;;;8.60;75.50;;;;;;4900835;29;20123;-78
2024/01/03 10:34:25;;;;;;;2.88;0.90;;;8.50;76.90;;;;;;4902356;29;20072;-77
2024/01/03 10:36:52;;;;;;;2.63;1.05;;;8.60;75.70;;;;;;4902386;29;20040;-77
2024/01/03 10:39:22;;;;;;;4.57;1.10;;;8.60;75.50;;;;;;4902429;29;20028;-77
2024/01/03 10:41:48;;;;;;;2.25;0.70;;;8.60;75.40;;;;;;4902350;29;20032;-76
2024/01/03 10:44:15;;;;;;;4.63;1.00;;;8.60;74.60;;;;;;4902397;29;20039;-78
2024/01/03 10:46:42;;;;;;;6.50;0.90;;;8.80;74.40;;;;;;4902290;29;20028;-79
2024/01/03 10:49:08;;;;;;;3.83;0.88;;;8.90;73.40;;;;;;4902063;29;20024;-78
2024/01/03 10:51:40;;;;;;;2.75;0.90;;;8.90;73.50;;;;;;4902010;29;20032;-78
2024/01/03 10:54:09;;;;;;;4.47;1.00;;;9.00;73.00;;;;;;4902260;29;20028;-77
2024/01/03 10:56:36;;;;;;;4.18;0.93;;;9.10;72.50;;;;;;4901991;29;20389;-77
2024/01/03 10:59:06;;;;;;;3.88;1.00;;;9.10;72.30;;;;;;4901991;29;20067;-77
2024/01/03 11:01:44;;;;;;;5.85;1.13;;;9.20;71.50;;;;;;4901744;29;20034;-78
2024/01/03 11:04:42;;;;;;;4.95;0.95;;;9.40;71.00;;;;;;4917676;29;20032;-79
2024/01/03 11:07:22;;;;;;;3.75;0.90;;;9.60;70.40;;;;;;4881121;29;20055;-78
2024/01/03 11:09:48;;;;;;;4.35;1.00;;;9.70;69.00;;;;;;4897638;29;20101;-80
2024/01/03 11:12:14;;;;;;;4.90;1.08;;;9.80;68.20;;;;;;4882624;29;20439;-76
2024/01/03 11:14:39;;;;;;;6.15;1.30;;;9.70;67.80;;;;;;4884637;29;20035;-79
2024/01/03 11:17:08;;;;;;;5.35;1.10;;;9.70;68.20;;;;;;4881837;29;20040;-79
2024/01/03 11:19:35;;;;;;;4.45;0.70;;;9.80;68.40;;;;;;4881677;29;20025;-75
2024/01/03 11:22:04;;;;;;;5.95;1.42;;;9.70;68.50;;;;;;4881528;29;20127;-81
2024/01/03 11:24:32;;;;;;;3.85;0.82;;;9.70;69.00;;;;;;4881777;29;20032;-81
2024/01/03 11:26:58;;;;;;;5.43;0.85;;;9.70;68.50;;;;;;4881573;29;20070;-77
2024/01/03 11:29:43;;;;;;;4.18;0.90;;;9.60;69.30;;;;;;4881494;29;20024;-80
2024/01/03 11:32:13;;;;;;;4.97;1.10;;;9.60;69.50;;;;;;4881450;29;20576;-80
2024/01/03 11:34:48;;;;;;;3.90;0.90;;;9.60;69.90;;;;;;4881260;29;20033;-81
2024/01/03 11:37:16;;;;;;;4.70;1.17;;;9.60;69.30;;;;;;4884049;29;20037;-80
2024/01/03 11:39:43;;;;;;;5.85;0.85;;;9.60;70.30;;;;;;4917065;29;20059;-77
2024/01/03 11:42:11;;;;;;;5.88;1.20;;;9.60;70.30;;;;;;4916630;29;20031;-80
2024/01/03 11:44:37;;;;;;;4.35;0.90;;;9.60;70.40;;;;;;4917310;29;20024;-80
2024/01/03 11:47:04;;;;;;;5.18;0.88;;;9.50;72.20;;;;;;4918064;29;20021;-77
2024/01/03 11:49:30;;;;;;;2.08;0.60;;;9.50;72.60;;;;;;4900791;29;20553;-82
2024/01/03 11:51:58;;;;;;;2.55;0.60;;;9.30;73.20;;;;;;4901166;29;20032;-79
2024/01/03 11:54:24;;;;;;;3.88;0.90;;;9.20;73.80;;;;;;4901243;29;20020;-81
2024/01/03 11:56:49;;;;;;;2.08;0.55;;;9.10;75.30;;;;;;4900926;29;20028;-79
2024/01/03 11:59:22;;;;;;;1.92;0.63;;;9.00;75.50;;;;;;4901022;29;20373;-80
2024/01/03 12:01:58;;;;;;;3.00;0.50;;;8.80;76.70;;;;;;4900866;29;20063;-79
2024/01/03 12:04:25;;;;;;;0.68;0.43;;;8.80;77.50;;;;;;4917847;29;20533;-77
2024/01/03 12:07:10;;;;;;;2.28;0.50;;;8.70;77.90;;;;;;4900827;29;20103;-81
2024/01/03 12:09:36;;;;;;;2.00;0.52;;;8.60;78.60;;;;;;4898864;29;20143;-75
2024/01/03 12:12:04;;;;;;;3.92;0.40;;;8.50;79.00;;;;;;4917254;29;20115;-75
2024/01/03 12:14:30;;;;;;;1.15;0.45;;;8.40;78.90;;;;;;4900356;29;20524;-75
2024/01/03 12:16:58;;;;;;;3.35;0.85;;;8.50;79.60;;;;;;4900383;29;20028;-78
2024/01/03 12:19:27;;;;;;;2.88;1.05;;;8.50;78.00;;;;;;4900244;29;20028;-75
2024/01/03 12:21:54;;;;;;;3.35;0.77;;;8.60;77.70;;;;;;4900563;29;20137;-75
2024/01/03 12:24:20;;;;;;;4.70;0.77;;;8.80;76.60;;;;;;4917273;29;20062;-75
2024/01/03 12:26:49;;;;;;;4.32;0.90;;;9.50;73.50;;;;;;4900415;29;20032;-76
2024/01/03 12:29:15;;;;;;;2.92;0.88;;;10.60;68.80;;;;;;4900221;29;20119;-75
2024/01/03 12:31:41;;;;;;;4.07;0.80;;;11.20;66.30;;;;;;4900486;29;20451;-75
2024/01/03 12:34:08;;;;;;;3.72;0.85;;;12.10;61.70;;;;;;4900272;29;20020;-74
2024/01/03 12:36:34;;;;;;;3.85;0.73;;;11.40;62.20;;;;;;4899965;29;20032;-76
2024/01/03 12:39:01;;;;;;;5.05;0.95;;;10.50;65.60;;;;;;4899915;29;20035;-77
2024/01/03 12:41:27;;;;;;;1.95;0.68;;;9.80;68.00;;;;;;4917266;29;20055;-76
2024/01/03 12:43:54;;;;;;;2.38;1.02;;;9.70;69.50;;;;;;4900182;29;20482;-76
2024/01/03 12:46:19;;;;;;;4.70;1.42;;;9.50;70.60;;;;;;4900141;29;20032;-76
2024/01/03 12:48:45;;;;;;;3.05;0.82;;;9.40;71.00;;;;;;4899920;29;20051;-76
2024/01/03 12:51:11;;;;;;;6.00;1.30;;;9.30;71.20;;;;;;4899611;29;20095;-76
2024/01/03 12:53:37;;;;;;;3.17;0.90;;;9.40;71.10;;;;;;4899562;29;20111;-76
2024/01/03 12:56:03;;;;;;;4.35;0.90;;;9.50;70.80;;;;;;4899848;29;20491;-76